Accueil
METAR-TAF:

METAR-TAF

Aéroports :

Aéroport international de Cần Thơ

Cần Thơ, Viêtnam

latitude: 10-05-07N, longitude: 105-42-43E, altitude: 3 m

METAR: absent

Heure: 12:22 (05:22 UTC)

Prévision

Le bulletin a été fait il y a 6 heures et 22 minutes, à 23:00 UTC
Prévision valable du 26 à 00 UTC au 26 à 24 UTC
Vent 8 kt de ouest/sud-ouest
Visibilité 10 km ou plus
Nuages épars à une hauteur de 1500 ft
Nuages épars à une hauteur de 4000 ft
Temporairement
du 26 à 04 UTC au 26 à 10 UTC
Visibilité: 5000 m
Nuages fragmentés à une hauteur de 1300 ft
Quelques nuages à une hauteur de 1500 ft, Cumulonimbus.
orage, pluie

TAF: VVCT 252300Z 2600/2624 25008KT 9999 SCT015 SCT040 TEMPO 2604/2610 5000 TSRA BKN013 FEW015CB

Observations et prévisions météorologiques de plus de 4000 aéroports (messages METAR et TAF).

Les stations disponibles sont représentées par des disques jaunes et rouges sur la carte.

Passer la souris dessus pour voir le nom de la station.

Cliquer dessus pour voir les observations et prévisions météorologiques.

Pour changer de carte: cliquez sur les boutons verts avec une croix noire pour zoomer, sur le bouton vert avec un tiret pour effectuer un zoom arrière, ou sur les flèches vertes pour les cartes adjacentes.


METAR-TAF: